Kenansville, NC

11:48 AM EDT on October 02, 2014 (GMT -0400)
RAWS NC FIRE RAWS #3 NC US | Change Station
CLOSE
Current Station
Personal Weather Station
Location: Kenansville, NC
Elevation: 138 ft
Nearby Weather Stations

Elev 138 ft 34.94 °N, 77.98 °W | Updated 59 minutes ago

Scattered Clouds
Scattered Clouds
77 °F
Feels Like 78 °F
N
0
Wind Variable Wind from North
Gusts 4.0 mph

Today
High -- | Low -- °F
--% Chance of Precip.
Yesterday
High -- | Low -- °F
Precip. -- in
7:07 AM 6:54 PM
First Quarter, 60% visible
Pressure 30.12 in
Visibility 10.0 miles
Clouds Scattered Clouds 2500 ft
Heat Index 78 °F
Dew Point 74 °F
Humidity 90%
Rainfall 0.00 in
Snow Depth Not available.
UV 5 out of 12
Pollen 5.10 out of 12
Air Quality Not available.
Flu Activity Not available.
METAR KDPL 021535Z AUTO 31004KT 10SM SCT025 25/18 A3012 RMK AO2 T02500179

More Conditions Fewer Conditions

Pressure 30.12 in
Visibility 10.0 miles
Clouds Scattered Clouds 2500 ft
Heat Index 78 °F
Dew Point 74 °F
Humidity 90%
Rainfall 0.00 in
Snow Depth Not available.
UV 5 out of 12
Pollen 5.10 out of 12
Air Quality Not available.
Flu Activity Not available.
METAR KDPL 021535Z AUTO 31004KT 10SM SCT025 25/18 A3012 RMK AO2 T02500179

More Conditions Fewer Conditions

10-Day Weather Forecast

Almanac

Astronomy

Oct. 02, 2014 Rise Set
Actual Time 7:07 AM EDT 6:54 PM EDT
Civil Twilight 6:42 AM EDT 7:19 PM EDT
Nautical Twilight 6:12 AM EDT 7:48 PM EDT
Astronomical Twilight 5:43 AM EDT 8:18 PM EDT
Moon 2:47 PM EDT 12:35 AM EDT
Length of Visible Light 12h 37m
Length of Day
11h 47m
Tomorrow will be 2m 11s shorter.
First Quarter, 60% of the Moon is Illuminated
Today
First Quarter
Oct 8
Full
Oct 15
Last Quarter
Oct 23
New
Oct 30
First Quarter

Today's Extremes

State Highs State Lows

Community

WunderPhotos

Upload Photos

1,758,276 photos uploaded!

WunderBlogs® & News

Nearby

Snow Depth

Station Depth Elevation
No new snow has been reported.

Earthquake Activity

City Distance Mag. Time & Date
No recent earthquake activity has been reported nearby.
Minimum magnitude displayed is 2.5.

Coastal Water Temperatures

Place Temperature
No Stations Reporting

Nearby Weather Stations